Archival Weather

Tokyo Intl

Tokyo Intl, Japan (RJTT)

Report from: Friday, June 24, 2022 5:37 PM JST
Current time: Tuesday, August 16, 2022 10:33 AM JST

Current weather
Weather history
Weather forecast

Temperature29.0°C (84.2°F)
Heat index32.9°C (91.2°F)
Dew point23.0°C (73.4°F)
Winds 22 kts (11.3 m/s, 25.3 mph) South-Southwest (200°)
Wind gusts 32 kts (16.5 m/s, 36.8 mph)
Visibility6.2 mi. (10 km)
Clouds Ceiling: Broken clouds 0 ft. (0 m)
Few clouds 3,000 ft. (914 m)
Altimeter29.62 in.Hg (1003 mB)
Relative humidity70 %
Density altitude2,330 ft. (710 m)
Remarks Special weather observation
Flight conditions Low Instrument Meteorological Conditions
Raw dataSPJP31 KWBC 240906 SPECI RJTT 240837Z 20022G32KT 9999 FEW030 BKN/// 29/23 Q1003 RMK 1CU030 A2962
An error has occurred. This application may no longer respond until reloaded. Reload 🗙